sensor_id;sensor_type;location;lat;lon;timestamp;P1;durP1;ratioP1;P2;durP2;ratioP2
35330;SDS011;21441;52.190;20.910;2022-09-14T00:02:05;6.53;;;5.50;;
35330;SDS011;21441;52.190;20.910;2022-09-14T00:04:32;5.43;;;4.93;;
35330;SDS011;21441;52.190;20.910;2022-09-14T00:06:59;4.35;;;3.95;;
35330;SDS011;21441;52.190;20.910;2022-09-14T00:09:25;4.90;;;4.45;;
35330;SDS011;21441;52.190;20.910;2022-09-14T00:11:52;5.57;;;4.07;;
35330;SDS011;21441;52.190;20.910;2022-09-14T00:14:20;6.38;;;4.55;;
35330;SDS011;21441;52.190;20.910;2022-09-14T00:16:49;4.70;;;4.30;;
35330;SDS011;21441;52.190;20.910;2022-09-14T00:19:17;5.38;;;4.88;;
35330;SDS011;21441;52.190;20.910;2022-09-14T00:21:48;5.63;;;4.93;;
35330;SDS011;21441;52.190;20.910;2022-09-14T00:24:16;4.25;;;3.85;;
35330;SDS011;21441;52.190;20.910;2022-09-14T00:26:44;5.25;;;4.72;;
35330;SDS011;21441;52.190;20.910;2022-09-14T00:29:11;4.90;;;4.45;;
35330;SDS011;21441;52.190;20.910;2022-09-14T00:31:38;5.72;;;5.22;;
35330;SDS011;21441;52.190;20.910;2022-09-14T00:34:07;7.57;;;5.40;;
35330;SDS011;21441;52.190;20.910;2022-09-14T00:36:38;6.57;;;4.50;;
35330;SDS011;21441;52.190;20.910;2022-09-14T00:39:08;5.97;;;5.47;;
35330;SDS011;21441;52.190;20.910;2022-09-14T00:41:36;5.88;;;5.07;;
35330;SDS011;21441;52.190;20.910;2022-09-14T00:44:05;7.38;;;5.72;;
35330;SDS011;21441;52.190;20.910;2022-09-14T00:46:34;6.43;;;5.72;;
35330;SDS011;21441;52.190;20.910;2022-09-14T00:49:03;7.05;;;6.18;;
35330;SDS011;21441;52.190;20.910;2022-09-14T00:51:34;9.35;;;7.45;;
35330;SDS011;21441;52.190;20.910;2022-09-14T00:54:04;8.93;;;6.88;;
35330;SDS011;21441;52.190;20.910;2022-09-14T00:56:32;8.55;;;7.13;;
35330;SDS011;21441;52.190;20.910;2022-09-14T00:59:00;8.93;;;7.60;;
35330;SDS011;21441;52.190;20.910;2022-09-14T01:01:32;9.82;;;8.18;;
35330;SDS011;21441;52.190;20.910;2022-09-14T01:04:00;10.98;;;8.95;;
35330;SDS011;21441;52.190;20.910;2022-09-14T01:06:30;9.40;;;7.97;;
35330;SDS011;21441;52.190;20.910;2022-09-14T01:09:11;10.23;;;9.00;;
35330;SDS011;21441;52.190;20.910;2022-09-14T01:11:51;9.63;;;8.48;;
35330;SDS011;21441;52.190;20.910;2022-09-14T01:14:36;10.00;;;8.63;;
35330;SDS011;21441;52.190;20.910;2022-09-14T01:17:11;10.75;;;9.48;;
35330;SDS011;21441;52.190;20.910;2022-09-14T01:19:48;14.50;;;11.52;;
35330;SDS011;21441;52.190;20.910;2022-09-14T01:22:33;12.07;;;10.52;;
35330;SDS011;21441;52.190;20.910;2022-09-14T01:25:09;15.48;;;12.35;;
35330;SDS011;21441;52.190;20.910;2022-09-14T01:27:45;14.80;;;12.52;;
35330;SDS011;21441;52.190;20.910;2022-09-14T01:32:45;13.35;;;11.57;;
35330;SDS011;21441;52.190;20.910;2022-09-14T01:35:18;19.13;;;14.15;;
35330;SDS011;21441;52.190;20.910;2022-09-14T01:37:49;17.05;;;14.20;;
35330;SDS011;21441;52.190;20.910;2022-09-14T01:40:21;16.92;;;13.25;;
35330;SDS011;21441;52.190;20.910;2022-09-14T01:42:54;17.58;;;14.27;;
35330;SDS011;21441;52.190;20.910;2022-09-14T01:45:23;18.42;;;15.02;;
35330;SDS011;21441;52.190;20.910;2022-09-14T01:47:54;18.63;;;14.63;;
35330;SDS011;21441;52.190;20.910;2022-09-14T01:50:27;17.02;;;14.55;;
35330;SDS011;21441;52.190;20.910;2022-09-14T01:53:08;18.00;;;14.23;;
35330;SDS011;21441;52.190;20.910;2022-09-14T01:55:41;19.00;;;15.40;;
35330;SDS011;21441;52.190;20.910;2022-09-14T01:58:13;21.58;;;15.30;;
35330;SDS011;21441;52.190;20.910;2022-09-14T02:00:47;19.52;;;15.48;;
35330;SDS011;21441;52.190;20.910;2022-09-14T02:03:18;24.58;;;16.85;;
35330;SDS011;21441;52.190;20.910;2022-09-14T02:05:50;26.52;;;18.05;;
35330;SDS011;21441;52.190;20.910;2022-09-14T02:08:25;26.35;;;17.95;;
35330;SDS011;21441;52.190;20.910;2022-09-14T02:10:55;27.20;;;18.55;;
35330;SDS011;21441;52.190;20.910;2022-09-14T02:13:23;32.80;;;20.80;;
35330;SDS011;21441;52.190;20.910;2022-09-14T02:15:51;32.22;;;22.20;;
35330;SDS011;21441;52.190;20.910;2022-09-14T02:18:19;32.20;;;22.85;;
35330;SDS011;21441;52.190;20.910;2022-09-14T02:20:47;36.33;;;23.52;;
35330;SDS011;21441;52.190;20.910;2022-09-14T02:23:19;36.75;;;25.02;;
35330;SDS011;21441;52.190;20.910;2022-09-14T02:25:46;35.30;;;23.75;;
35330;SDS011;21441;52.190;20.910;2022-09-14T02:28:13;35.30;;;26.20;;
35330;SDS011;21441;52.190;20.910;2022-09-14T02:30:44;40.92;;;26.10;;
35330;SDS011;21441;52.190;20.910;2022-09-14T02:33:18;41.40;;;26.75;;
35330;SDS011;21441;52.190;20.910;2022-09-14T02:35:52;40.80;;;28.73;;
35330;SDS011;21441;52.190;20.910;2022-09-14T02:38:22;43.00;;;28.50;;
35330;SDS011;21441;52.190;20.910;2022-09-14T02:40:55;48.22;;;31.60;;
35330;SDS011;21441;52.190;20.910;2022-09-14T02:43:27;49.17;;;31.40;;
35330;SDS011;21441;52.190;20.910;2022-09-14T02:46:04;45.10;;;29.90;;
35330;SDS011;21441;52.190;20.910;2022-09-14T02:48:39;44.72;;;31.10;;
35330;SDS011;21441;52.190;20.910;2022-09-14T02:51:15;46.08;;;30.42;;
35330;SDS011;21441;52.190;20.910;2022-09-14T02:53:52;49.67;;;32.72;;
35330;SDS011;21441;52.190;20.910;2022-09-14T02:56:23;51.05;;;33.70;;
35330;SDS011;21441;52.190;20.910;2022-09-14T02:58:52;50.92;;;33.38;;
35330;SDS011;21441;52.190;20.910;2022-09-14T03:01:20;55.58;;;33.97;;
35330;SDS011;21441;52.190;20.910;2022-09-14T03:03:49;53.38;;;33.85;;
35330;SDS011;21441;52.190;20.910;2022-09-14T03:06:16;56.75;;;36.00;;
35330;SDS011;21441;52.190;20.910;2022-09-14T03:08:43;55.33;;;34.30;;
35330;SDS011;21441;52.190;20.910;2022-09-14T03:11:10;50.85;;;33.80;;
35330;SDS011;21441;52.190;20.910;2022-09-14T03:13:38;54.65;;;36.92;;
35330;SDS011;21441;52.190;20.910;2022-09-14T03:16:05;55.78;;;37.40;;
35330;SDS011;21441;52.190;20.910;2022-09-14T03:18:34;54.28;;;36.65;;
35330;SDS011;21441;52.190;20.910;2022-09-14T03:21:02;56.33;;;35.83;;
35330;SDS011;21441;52.190;20.910;2022-09-14T03:23:29;57.75;;;36.45;;
35330;SDS011;21441;52.190;20.910;2022-09-14T03:26:00;55.92;;;34.30;;
35330;SDS011;21441;52.190;20.910;2022-09-14T03:28:27;57.75;;;35.42;;
35330;SDS011;21441;52.190;20.910;2022-09-14T03:30:53;52.13;;;33.75;;
35330;SDS011;21441;52.190;20.910;2022-09-14T03:33:20;53.22;;;34.20;;
35330;SDS011;21441;52.190;20.910;2022-09-14T03:35:48;53.05;;;31.00;;
35330;SDS011;21441;52.190;20.910;2022-09-14T03:38:15;55.17;;;35.58;;
35330;SDS011;21441;52.190;20.910;2022-09-14T03:40:42;53.45;;;33.92;;
35330;SDS011;21441;52.190;20.910;2022-09-14T03:43:09;56.83;;;36.00;;
35330;SDS011;21441;52.190;20.910;2022-09-14T03:45:37;54.58;;;35.83;;
35330;SDS011;21441;52.190;20.910;2022-09-14T03:48:04;53.33;;;34.53;;
35330;SDS011;21441;52.190;20.910;2022-09-14T03:50:31;51.88;;;34.08;;
35330;SDS011;21441;52.190;20.910;2022-09-14T03:53:00;53.22;;;33.33;;
35330;SDS011;21441;52.190;20.910;2022-09-14T03:55:29;50.25;;;32.15;;
35330;SDS011;21441;52.190;20.910;2022-09-14T03:57:56;54.10;;;31.77;;
35330;SDS011;21441;52.190;20.910;2022-09-14T04:00:23;53.80;;;34.90;;
35330;SDS011;21441;52.190;20.910;2022-09-14T04:02:49;48.55;;;31.63;;
35330;SDS011;21441;52.190;20.910;2022-09-14T04:05:17;51.08;;;34.10;;
35330;SDS011;21441;52.190;20.910;2022-09-14T04:07:44;48.13;;;32.78;;
35330;SDS011;21441;52.190;20.910;2022-09-14T04:10:12;52.47;;;34.78;;
35330;SDS011;21441;52.190;20.910;2022-09-14T04:12:39;47.30;;;32.40;;
35330;SDS011;21441;52.190;20.910;2022-09-14T04:15:06;52.17;;;32.50;;
35330;SDS011;21441;52.190;20.910;2022-09-14T04:17:34;44.42;;;31.10;;
35330;SDS011;21441;52.190;20.910;2022-09-14T04:20:01;43.97;;;29.98;;
35330;SDS011;21441;52.190;20.910;2022-09-14T04:22:28;43.55;;;28.92;;
35330;SDS011;21441;52.190;20.910;2022-09-14T04:24:55;39.85;;;29.08;;
35330;SDS011;21441;52.190;20.910;2022-09-14T04:27:24;38.42;;;27.10;;
35330;SDS011;21441;52.190;20.910;2022-09-14T04:29:50;40.67;;;28.38;;
35330;SDS011;21441;52.190;20.910;2022-09-14T04:32:17;39.80;;;27.92;;
35330;SDS011;21441;52.190;20.910;2022-09-14T04:34:44;38.55;;;27.70;;
35330;SDS011;21441;52.190;20.910;2022-09-14T04:37:11;37.70;;;27.50;;
35330;SDS011;21441;52.190;20.910;2022-09-14T04:39:38;37.08;;;26.25;;
35330;SDS011;21441;52.190;20.910;2022-09-14T04:42:05;35.95;;;26.05;;
35330;SDS011;21441;52.190;20.910;2022-09-14T04:44:34;34.08;;;25.20;;
35330;SDS011;21441;52.190;20.910;2022-09-14T04:47:00;34.88;;;25.52;;
35330;SDS011;21441;52.190;20.910;2022-09-14T04:49:28;34.53;;;26.08;;
35330;SDS011;21441;52.190;20.910;2022-09-14T04:51:55;36.20;;;25.80;;
35330;SDS011;21441;52.190;20.910;2022-09-14T04:54:22;37.70;;;25.63;;
35330;SDS011;21441;52.190;20.910;2022-09-14T04:56:49;34.47;;;26.35;;
35330;SDS011;21441;52.190;20.910;2022-09-14T04:59:16;34.22;;;26.42;;
35330;SDS011;21441;52.190;20.910;2022-09-14T05:01:45;38.67;;;26.63;;
35330;SDS011;21441;52.190;20.910;2022-09-14T05:04:13;38.28;;;28.77;;
35330;SDS011;21441;52.190;20.910;2022-09-14T05:06:40;40.10;;;27.48;;
35330;SDS011;21441;52.190;20.910;2022-09-14T05:09:09;42.40;;;27.90;;
35330;SDS011;21441;52.190;20.910;2022-09-14T05:11:38;44.17;;;28.20;;
35330;SDS011;21441;52.190;20.910;2022-09-14T05:14:06;41.13;;;27.77;;
35330;SDS011;21441;52.190;20.910;2022-09-14T05:16:33;37.53;;;25.95;;
35330;SDS011;21441;52.190;20.910;2022-09-14T05:19:04;36.40;;;26.80;;
35330;SDS011;21441;52.190;20.910;2022-09-14T05:21:33;34.50;;;24.90;;
35330;SDS011;21441;52.190;20.910;2022-09-14T05:24:02;32.50;;;25.33;;
35330;SDS011;21441;52.190;20.910;2022-09-14T05:26:31;34.05;;;25.48;;
35330;SDS011;21441;52.190;20.910;2022-09-14T05:28:58;37.67;;;26.70;;
35330;SDS011;21441;52.190;20.910;2022-09-14T05:31:27;34.22;;;26.08;;
35330;SDS011;21441;52.190;20.910;2022-09-14T05:33:55;31.65;;;25.23;;
35330;SDS011;21441;52.190;20.910;2022-09-14T05:36:24;31.33;;;25.00;;
35330;SDS011;21441;52.190;20.910;2022-09-14T05:38:51;38.22;;;27.02;;
35330;SDS011;21441;52.190;20.910;2022-09-14T05:41:18;32.92;;;25.38;;
35330;SDS011;21441;52.190;20.910;2022-09-14T05:43:45;35.55;;;24.65;;
35330;SDS011;21441;52.190;20.910;2022-09-14T05:46:14;34.85;;;26.05;;
35330;SDS011;21441;52.190;20.910;2022-09-14T05:48:44;39.10;;;26.20;;
35330;SDS011;21441;52.190;20.910;2022-09-14T05:51:12;36.65;;;26.38;;
35330;SDS011;21441;52.190;20.910;2022-09-14T05:53:42;38.45;;;27.02;;
35330;SDS011;21441;52.190;20.910;2022-09-14T05:56:13;36.65;;;27.52;;
35330;SDS011;21441;52.190;20.910;2022-09-14T05:58:41;36.85;;;26.30;;
35330;SDS011;21441;52.190;20.910;2022-09-14T06:01:09;39.03;;;26.88;;
35330;SDS011;21441;52.190;20.910;2022-09-14T06:03:38;43.63;;;26.70;;
35330;SDS011;21441;52.190;20.910;2022-09-14T06:06:06;46.17;;;30.02;;
35330;SDS011;21441;52.190;20.910;2022-09-14T06:08:34;48.20;;;31.73;;
35330;SDS011;21441;52.190;20.910;2022-09-14T06:11:04;43.28;;;28.35;;
35330;SDS011;21441;52.190;20.910;2022-09-14T06:13:32;45.28;;;30.17;;
35330;SDS011;21441;52.190;20.910;2022-09-14T06:16:02;47.00;;;28.88;;
35330;SDS011;21441;52.190;20.910;2022-09-14T06:18:30;48.22;;;29.60;;
35330;SDS011;21441;52.190;20.910;2022-09-14T06:20:58;48.35;;;32.08;;
35330;SDS011;21441;52.190;20.910;2022-09-14T06:23:25;48.20;;;32.78;;
35330;SDS011;21441;52.190;20.910;2022-09-14T06:25:52;46.40;;;30.83;;
35330;SDS011;21441;52.190;20.910;2022-09-14T06:28:21;48.03;;;31.58;;
35330;SDS011;21441;52.190;20.910;2022-09-14T06:30:49;41.38;;;29.67;;
35330;SDS011;21441;52.190;20.910;2022-09-14T06:33:17;40.45;;;27.40;;
35330;SDS011;21441;52.190;20.910;2022-09-14T06:35:52;36.45;;;26.17;;
35330;SDS011;21441;52.190;20.910;2022-09-14T06:38:20;37.90;;;27.13;;
35330;SDS011;21441;52.190;20.910;2022-09-14T06:40:50;31.27;;;20.42;;
35330;SDS011;21441;52.190;20.910;2022-09-14T06:43:21;38.20;;;27.23;;
35330;SDS011;21441;52.190;20.910;2022-09-14T06:45:55;34.50;;;25.52;;
35330;SDS011;21441;52.190;20.910;2022-09-14T06:48:23;37.83;;;27.35;;
35330;SDS011;21441;52.190;20.910;2022-09-14T06:50:51;36.45;;;27.15;;
35330;SDS011;21441;52.190;20.910;2022-09-14T06:53:17;38.03;;;27.48;;
35330;SDS011;21441;52.190;20.910;2022-09-14T06:55:45;39.60;;;26.42;;
35330;SDS011;21441;52.190;20.910;2022-09-14T06:58:12;35.20;;;26.60;;
35330;SDS011;21441;52.190;20.910;2022-09-14T07:00:41;41.17;;;27.88;;
35330;SDS011;21441;52.190;20.910;2022-09-14T07:03:08;36.22;;;28.02;;
35330;SDS011;21441;52.190;20.910;2022-09-14T07:05:35;39.55;;;27.77;;
35330;SDS011;21441;52.190;20.910;2022-09-14T07:08:02;38.47;;;27.50;;
35330;SDS011;21441;52.190;20.910;2022-09-14T07:10:28;41.55;;;29.85;;
35330;SDS011;21441;52.190;20.910;2022-09-14T07:12:57;33.55;;;23.52;;
35330;SDS011;21441;52.190;20.910;2022-09-14T07:15:24;44.47;;;28.48;;
35330;SDS011;21441;52.190;20.910;2022-09-14T07:17:52;36.70;;;26.08;;
35330;SDS011;21441;52.190;20.910;2022-09-14T07:20:20;36.40;;;26.17;;
35330;SDS011;21441;52.190;20.910;2022-09-14T07:22:46;33.80;;;26.42;;
35330;SDS011;21441;52.190;20.910;2022-09-14T07:25:13;37.72;;;21.48;;
35330;SDS011;21441;52.190;20.910;2022-09-14T07:27:40;26.08;;;19.95;;
35330;SDS011;21441;52.190;20.910;2022-09-14T07:30:08;33.28;;;22.75;;
35330;SDS011;21441;52.190;20.910;2022-09-14T07:32:35;24.08;;;17.88;;
35330;SDS011;21441;52.190;20.910;2022-09-14T07:35:03;29.30;;;20.73;;
35330;SDS011;21441;52.190;20.910;2022-09-14T07:37:30;25.23;;;19.15;;
35330;SDS011;21441;52.190;20.910;2022-09-14T07:39:57;26.00;;;18.50;;
35330;SDS011;21441;52.190;20.910;2022-09-14T07:42:25;25.00;;;18.92;;
35330;SDS011;21441;52.190;20.910;2022-09-14T07:44:55;26.10;;;17.45;;
35330;SDS011;21441;52.190;20.910;2022-09-14T07:47:21;17.27;;;13.30;;
35330;SDS011;21441;52.190;20.910;2022-09-14T07:49:48;16.58;;;12.60;;
35330;SDS011;21441;52.190;20.910;2022-09-14T07:52:17;16.77;;;12.85;;
35330;SDS011;21441;52.190;20.910;2022-09-14T07:54:43;17.90;;;14.55;;
35330;SDS011;21441;52.190;20.910;2022-09-14T07:57:11;17.83;;;13.88;;
35330;SDS011;21441;52.190;20.910;2022-09-14T07:59:38;19.98;;;12.35;;
35330;SDS011;21441;52.190;20.910;2022-09-14T08:02:05;15.30;;;11.00;;
35330;SDS011;21441;52.190;20.910;2022-09-14T08:04:33;15.50;;;10.85;;
35330;SDS011;21441;52.190;20.910;2022-09-14T08:07:00;15.45;;;10.85;;
35330;SDS011;21441;52.190;20.910;2022-09-14T08:09:29;15.38;;;11.90;;
35330;SDS011;21441;52.190;20.910;2022-09-14T08:11:56;17.25;;;12.70;;
35330;SDS011;21441;52.190;20.910;2022-09-14T08:14:23;17.20;;;11.75;;
35330;SDS011;21441;52.190;20.910;2022-09-14T08:16:50;17.17;;;12.48;;
35330;SDS011;21441;52.190;20.910;2022-09-14T08:19:17;16.10;;;11.95;;
35330;SDS011;21441;52.190;20.910;2022-09-14T08:21:45;14.85;;;11.38;;
35330;SDS011;21441;52.190;20.910;2022-09-14T08:24:13;16.02;;;12.52;;
35330;SDS011;21441;52.190;20.910;2022-09-14T08:26:42;17.08;;;12.57;;
35330;SDS011;21441;52.190;20.910;2022-09-14T08:29:10;18.95;;;13.68;;
35330;SDS011;21441;52.190;20.910;2022-09-14T08:31:38;15.35;;;12.57;;
35330;SDS011;21441;52.190;20.910;2022-09-14T08:34:05;15.20;;;12.30;;
35330;SDS011;21441;52.190;20.910;2022-09-14T08:36:33;13.35;;;11.98;;
35330;SDS011;21441;52.190;20.910;2022-09-14T08:39:02;12.52;;;9.88;;
35330;SDS011;21441;52.190;20.910;2022-09-14T08:41:31;15.38;;;11.93;;
35330;SDS011;21441;52.190;20.910;2022-09-14T08:44:05;12.40;;;8.10;;
35330;SDS011;21441;52.190;20.910;2022-09-14T08:46:43;16.65;;;10.60;;
35330;SDS011;21441;52.190;20.910;2022-09-14T08:49:13;14.13;;;10.23;;
35330;SDS011;21441;52.190;20.910;2022-09-14T08:51:46;12.15;;;9.98;;
35330;SDS011;21441;52.190;20.910;2022-09-14T08:54:13;14.55;;;9.77;;
35330;SDS011;21441;52.190;20.910;2022-09-14T08:56:42;16.17;;;11.73;;
35330;SDS011;21441;52.190;20.910;2022-09-14T08:59:17;11.40;;;9.90;;
35330;SDS011;21441;52.190;20.910;2022-09-14T09:02:06;15.63;;;10.48;;
35330;SDS011;21441;52.190;20.910;2022-09-14T09:04:49;14.15;;;8.32;;
35330;SDS011;21441;52.190;20.910;2022-09-14T09:07:20;8.50;;;7.18;;
35330;SDS011;21441;52.190;20.910;2022-09-14T09:09:55;13.15;;;8.10;;
35330;SDS011;21441;52.190;20.910;2022-09-14T09:12:23;14.52;;;7.68;;
35330;SDS011;21441;52.190;20.910;2022-09-14T09:15:03;12.38;;;8.18;;
35330;SDS011;21441;52.190;20.910;2022-09-14T09:17:32;10.30;;;5.93;;
35330;SDS011;21441;52.190;20.910;2022-09-14T09:20:03;11.40;;;7.50;;
35330;SDS011;21441;52.190;20.910;2022-09-14T09:22:37;11.52;;;7.30;;
35330;SDS011;21441;52.190;20.910;2022-09-14T09:25:09;11.02;;;7.45;;
35330;SDS011;21441;52.190;20.910;2022-09-14T09:27:44;11.32;;;7.18;;
35330;SDS011;21441;52.190;20.910;2022-09-14T09:30:14;10.20;;;7.90;;
35330;SDS011;21441;52.190;20.910;2022-09-14T09:32:41;9.43;;;7.03;;
35330;SDS011;21441;52.190;20.910;2022-09-14T09:35:12;9.98;;;6.03;;
35330;SDS011;21441;52.190;20.910;2022-09-14T09:37:40;7.88;;;4.25;;
35330;SDS011;21441;52.190;20.910;2022-09-14T09:40:12;7.68;;;3.90;;
35330;SDS011;21441;52.190;20.910;2022-09-14T09:45:45;6.95;;;4.40;;
35330;SDS011;21441;52.190;20.910;2022-09-14T09:48:14;5.95;;;4.00;;
35330;SDS011;21441;52.190;20.910;2022-09-14T09:50:46;6.57;;;3.63;;
35330;SDS011;21441;52.190;20.910;2022-09-14T09:53:15;8.48;;;4.07;;
35330;SDS011;21441;52.190;20.910;2022-09-14T09:55:46;6.88;;;4.15;;
35330;SDS011;21441;52.190;20.910;2022-09-14T09:58:21;9.55;;;4.30;;
35330;SDS011;21441;52.190;20.910;2022-09-14T10:00:56;5.80;;;4.35;;
35330;SDS011;21441;52.190;20.910;2022-09-14T10:06:00;6.78;;;5.00;;
35330;SDS011;21441;52.190;20.910;2022-09-14T10:08:28;8.52;;;5.78;;
35330;SDS011;21441;52.190;20.910;2022-09-14T10:11:00;6.50;;;4.65;;
35330;SDS011;21441;52.190;20.910;2022-09-14T10:13:29;5.10;;;3.30;;
35330;SDS011;21441;52.190;20.910;2022-09-14T10:16:05;6.43;;;4.05;;
35330;SDS011;21441;52.190;20.910;2022-09-14T10:18:34;5.68;;;3.30;;
35330;SDS011;21441;52.190;20.910;2022-09-14T10:21:05;5.93;;;3.85;;
35330;SDS011;21441;52.190;20.910;2022-09-14T10:23:34;6.03;;;3.83;;
35330;SDS011;21441;52.190;20.910;2022-09-14T10:26:15;5.82;;;3.58;;
35330;SDS011;21441;52.190;20.910;2022-09-14T10:28:45;7.53;;;3.40;;
35330;SDS011;21441;52.190;20.910;2022-09-14T10:31:17;6.95;;;3.92;;
35330;SDS011;21441;52.190;20.910;2022-09-14T10:33:51;6.82;;;3.25;;
35330;SDS011;21441;52.190;20.910;2022-09-14T10:36:22;4.53;;;3.70;;
35330;SDS011;21441;52.190;20.910;2022-09-14T10:38:52;5.65;;;3.55;;
35330;SDS011;21441;52.190;20.910;2022-09-14T10:41:24;6.18;;;3.97;;
35330;SDS011;21441;52.190;20.910;2022-09-14T10:44:03;6.32;;;3.13;;
35330;SDS011;21441;52.190;20.910;2022-09-14T10:46:50;3.65;;;2.25;;
35330;SDS011;21441;52.190;20.910;2022-09-14T10:49:31;2.88;;;2.15;;
35330;SDS011;21441;52.190;20.910;2022-09-14T10:52:14;3.85;;;2.20;;
35330;SDS011;21441;52.190;20.910;2022-09-14T10:54:53;5.90;;;2.63;;
35330;SDS011;21441;52.190;20.910;2022-09-14T10:57:32;4.65;;;2.28;;
35330;SDS011;21441;52.190;20.910;2022-09-14T11:00:10;3.15;;;2.40;;
35330;SDS011;21441;52.190;20.910;2022-09-14T11:02:46;5.37;;;2.27;;
35330;SDS011;21441;52.190;20.910;2022-09-14T11:05:35;4.20;;;2.33;;
35330;SDS011;21441;52.190;20.910;2022-09-14T11:08:09;2.53;;;2.13;;
35330;SDS011;21441;52.190;20.910;2022-09-14T11:10:44;3.58;;;2.40;;
35330;SDS011;21441;52.190;20.910;2022-09-14T11:13:24;5.13;;;2.65;;
35330;SDS011;21441;52.190;20.910;2022-09-14T11:16:05;6.43;;;2.28;;
35330;SDS011;21441;52.190;20.910;2022-09-14T11:18:42;3.90;;;2.17;;
35330;SDS011;21441;52.190;20.910;2022-09-14T11:21:19;4.78;;;2.33;;
35330;SDS011;21441;52.190;20.910;2022-09-14T11:23:54;3.00;;;1.92;;
35330;SDS011;21441;52.190;20.910;2022-09-14T11:26:26;3.47;;;2.58;;
35330;SDS011;21441;52.190;20.910;2022-09-14T11:28:59;3.85;;;2.20;;
35330;SDS011;21441;52.190;20.910;2022-09-14T11:31:33;3.65;;;2.30;;
35330;SDS011;21441;52.190;20.910;2022-09-14T11:34:09;3.17;;;1.90;;
35330;SDS011;21441;52.190;20.910;2022-09-14T11:36:45;4.35;;;2.30;;
35330;SDS011;21441;52.190;20.910;2022-09-14T11:39:17;4.63;;;2.83;;
35330;SDS011;21441;52.190;20.910;2022-09-14T11:41:47;5.75;;;2.67;;
35330;SDS011;21441;52.190;20.910;2022-09-14T11:44:18;3.42;;;2.00;;
35330;SDS011;21441;52.190;20.910;2022-09-14T11:46:49;4.07;;;2.30;;
35330;SDS011;21441;52.190;20.910;2022-09-14T11:49:25;3.42;;;2.30;;
35330;SDS011;21441;52.190;20.910;2022-09-14T11:51:56;3.92;;;2.28;;
35330;SDS011;21441;52.190;20.910;2022-09-14T11:54:28;5.90;;;2.38;;
35330;SDS011;21441;52.190;20.910;2022-09-14T11:56:56;3.60;;;2.03;;
35330;SDS011;21441;52.190;20.910;2022-09-14T11:59:33;4.32;;;2.15;;
35330;SDS011;21441;52.190;20.910;2022-09-14T12:05:33;2.75;;;2.30;;
35330;SDS011;21441;52.190;20.910;2022-09-14T12:08:03;4.97;;;2.20;;
35330;SDS011;21441;52.190;20.910;2022-09-14T12:11:02;4.03;;;2.38;;
35330;SDS011;21441;52.190;20.910;2022-09-14T12:13:31;3.78;;;1.90;;
35330;SDS011;21441;52.190;20.910;2022-09-14T12:16:01;3.55;;;2.38;;
35330;SDS011;21441;52.190;20.910;2022-09-14T12:18:30;2.80;;;1.90;;
35330;SDS011;21441;52.190;20.910;2022-09-14T12:21:00;7.55;;;2.30;;
35330;SDS011;21441;52.190;20.910;2022-09-14T12:23:31;3.90;;;2.22;;
35330;SDS011;21441;52.190;20.910;2022-09-14T12:26:12;3.20;;;1.65;;
35330;SDS011;21441;52.190;20.910;2022-09-14T12:28:52;3.72;;;2.42;;
35330;SDS011;21441;52.190;20.910;2022-09-14T12:31:35;5.15;;;2.22;;
35330;SDS011;21441;52.190;20.910;2022-09-14T12:34:12;4.72;;;2.70;;
35330;SDS011;21441;52.190;20.910;2022-09-14T12:36:59;4.53;;;1.98;;
35330;SDS011;21441;52.190;20.910;2022-09-14T12:39:28;4.72;;;1.67;;
35330;SDS011;21441;52.190;20.910;2022-09-14T12:42:04;3.42;;;2.17;;
35330;SDS011;21441;52.190;20.910;2022-09-14T12:44:51;4.38;;;1.98;;
35330;SDS011;21441;52.190;20.910;2022-09-14T12:47:37;3.55;;;1.98;;
35330;SDS011;21441;52.190;20.910;2022-09-14T12:50:19;3.05;;;2.08;;
35330;SDS011;21441;52.190;20.910;2022-09-14T12:52:54;3.97;;;2.00;;
35330;SDS011;21441;52.190;20.910;2022-09-14T12:55:35;2.55;;;2.30;;
35330;SDS011;21441;52.190;20.910;2022-09-14T12:58:14;5.22;;;2.10;;
35330;SDS011;21441;52.190;20.910;2022-09-14T13:00:54;5.55;;;2.08;;
35330;SDS011;21441;52.190;20.910;2022-09-14T13:03:44;6.88;;;2.53;;
35330;SDS011;21441;52.190;20.910;2022-09-14T13:06:13;2.75;;;2.03;;
35330;SDS011;21441;52.190;20.910;2022-09-14T13:08:44;4.05;;;2.00;;
35330;SDS011;21441;52.190;20.910;2022-09-14T13:11:22;2.88;;;2.00;;
35330;SDS011;21441;52.190;20.910;2022-09-14T13:13:52;3.10;;;1.90;;
35330;SDS011;21441;52.190;20.910;2022-09-14T13:16:23;3.53;;;2.17;;
35330;SDS011;21441;52.190;20.910;2022-09-14T13:19:00;4.90;;;2.40;;
35330;SDS011;21441;52.190;20.910;2022-09-14T13:21:31;3.60;;;2.20;;
35330;SDS011;21441;52.190;20.910;2022-09-14T13:23:59;3.22;;;2.10;;
35330;SDS011;21441;52.190;20.910;2022-09-14T13:26:27;5.30;;;2.35;;
35330;SDS011;21441;52.190;20.910;2022-09-14T13:28:57;2.73;;;2.23;;
35330;SDS011;21441;52.190;20.910;2022-09-14T13:31:27;2.40;;;2.15;;
35330;SDS011;21441;52.190;20.910;2022-09-14T13:33:57;3.03;;;2.20;;
35330;SDS011;21441;52.190;20.910;2022-09-14T13:36:28;3.63;;;2.30;;
35330;SDS011;21441;52.190;20.910;2022-09-14T13:38:56;3.85;;;2.08;;
35330;SDS011;21441;52.190;20.910;2022-09-14T13:41:28;4.28;;;2.60;;
35330;SDS011;21441;52.190;20.910;2022-09-14T13:43:56;4.88;;;2.22;;
35330;SDS011;21441;52.190;20.910;2022-09-14T13:46:24;2.50;;;2.00;;
35330;SDS011;21441;52.190;20.910;2022-09-14T13:48:53;2.75;;;1.90;;
35330;SDS011;21441;52.190;20.910;2022-09-14T13:51:21;2.80;;;2.00;;
35330;SDS011;21441;52.190;20.910;2022-09-14T13:53:50;3.38;;;2.22;;
35330;SDS011;21441;52.190;20.910;2022-09-14T13:56:23;3.42;;;2.00;;
35330;SDS011;21441;52.190;20.910;2022-09-14T13:59:18;3.90;;;2.60;;
35330;SDS011;21441;52.190;20.910;2022-09-14T14:01:54;8.40;;;2.95;;
35330;SDS011;21441;52.190;20.910;2022-09-14T14:04:28;4.82;;;2.25;;
35330;SDS011;21441;52.190;20.910;2022-09-14T14:07:01;4.72;;;2.72;;
35330;SDS011;21441;52.190;20.910;2022-09-14T14:09:40;3.20;;;2.20;;
35330;SDS011;21441;52.190;20.910;2022-09-14T14:12:10;4.57;;;2.33;;
35330;SDS011;21441;52.190;20.910;2022-09-14T14:14:52;3.63;;;2.03;;
35330;SDS011;21441;52.190;20.910;2022-09-14T14:17:31;2.22;;;1.70;;
35330;SDS011;21441;52.190;20.910;2022-09-14T14:22:55;3.63;;;1.95;;
35330;SDS011;21441;52.190;20.910;2022-09-14T14:25:26;3.78;;;2.10;;
35330;SDS011;21441;52.190;20.910;2022-09-14T14:27:59;3.47;;;1.73;;
35330;SDS011;21441;52.190;20.910;2022-09-14T14:30:29;3.67;;;2.20;;
35330;SDS011;21441;52.190;20.910;2022-09-14T14:32:58;5.05;;;2.17;;
35330;SDS011;21441;52.190;20.910;2022-09-14T14:35:27;2.83;;;1.83;;
35330;SDS011;21441;52.190;20.910;2022-09-14T14:40:24;4.78;;;1.98;;
35330;SDS011;21441;52.190;20.910;2022-09-14T14:42:52;2.85;;;1.75;;
35330;SDS011;21441;52.190;20.910;2022-09-14T14:45:22;2.13;;;1.58;;
35330;SDS011;21441;52.190;20.910;2022-09-14T14:47:53;4.57;;;1.88;;
35330;SDS011;21441;52.190;20.910;2022-09-14T14:50:22;4.38;;;2.17;;
35330;SDS011;21441;52.190;20.910;2022-09-14T14:52:51;3.65;;;2.10;;
35330;SDS011;21441;52.190;20.910;2022-09-14T14:55:19;4.90;;;2.60;;
35330;SDS011;21441;52.190;20.910;2022-09-14T14:57:46;5.25;;;2.17;;
35330;SDS011;21441;52.190;20.910;2022-09-14T15:00:15;2.92;;;1.80;;